sensor_id;sensor_type;location;lat;lon;timestamp;pressure;altitude;pressure_sealevel;temperature;humidity
64402;BME280;50724;42.376;23.768;2023-03-15T00:02:20;92236.69;;;1.96;65.28
64402;BME280;50724;42.376;23.768;2023-03-15T00:05:21;92229.38;;;1.72;66.35
64402;BME280;50724;42.376;23.768;2023-03-15T00:08:21;92230.84;;;1.46;68.19
64402;BME280;50724;42.376;23.768;2023-03-15T00:11:22;92230.56;;;1.39;68.00
64402;BME280;50724;42.376;23.768;2023-03-15T00:14:22;92223.78;;;1.19;70.20
64402;BME280;50724;42.376;23.768;2023-03-15T00:17:23;92217.63;;;1.11;70.49
64402;BME280;50724;42.376;23.768;2023-03-15T00:20:23;92216.13;;;1.08;70.15
64402;BME280;50724;42.376;23.768;2023-03-15T00:23:24;92221.81;;;1.02;71.32
64402;BME280;50724;42.376;23.768;2023-03-15T00:26:24;92210.56;;;1.03;71.15
64402;BME280;50724;42.376;23.768;2023-03-15T00:29:25;92211.97;;;1.17;69.33
64402;BME280;50724;42.376;23.768;2023-03-15T00:32:25;92213.16;;;1.13;69.63
64402;BME280;50724;42.376;23.768;2023-03-15T00:35:26;92207.91;;;1.14;69.47
64402;BME280;50724;42.376;23.768;2023-03-15T00:38:26;92201.94;;;1.14;68.47
64402;BME280;50724;42.376;23.768;2023-03-15T00:41:27;92196.00;;;1.61;65.90
64402;BME280;50724;42.376;23.768;2023-03-15T00:44:27;92193.09;;;2.12;63.42
64402;BME280;50724;42.376;23.768;2023-03-15T00:47:28;92186.69;;;2.26;62.77
64402;BME280;50724;42.376;23.768;2023-03-15T00:50:28;92181.03;;;2.03;64.15
64402;BME280;50724;42.376;23.768;2023-03-15T00:53:29;92173.50;;;1.73;65.13
64402;BME280;50724;42.376;23.768;2023-03-15T00:56:29;92168.50;;;1.52;66.80
64402;BME280;50724;42.376;23.768;2023-03-15T00:59:32;92164.53;;;1.38;68.18
64402;BME280;50724;42.376;23.768;2023-03-15T01:02:36;92161.16;;;1.28;68.76
64402;BME280;50724;42.376;23.768;2023-03-15T01:05:36;92160.59;;;1.15;69.23
64402;BME280;50724;42.376;23.768;2023-03-15T01:08:37;92157.50;;;1.12;69.93
64402;BME280;50724;42.376;23.768;2023-03-15T01:11:38;92144.47;;;1.32;68.50
64402;BME280;50724;42.376;23.768;2023-03-15T01:14:38;92143.53;;;1.33;69.17
64402;BME280;50724;42.376;23.768;2023-03-15T01:17:39;92146.38;;;1.30;69.45
64402;BME280;50724;42.376;23.768;2023-03-15T01:20:42;92142.59;;;1.34;68.95
64402;BME280;50724;42.376;23.768;2023-03-15T01:23:43;92132.00;;;1.28;69.17
64402;BME280;50724;42.376;23.768;2023-03-15T01:26:44;92138.78;;;1.38;68.54
64402;BME280;50724;42.376;23.768;2023-03-15T01:29:44;92133.50;;;1.40;68.84
64402;BME280;50724;42.376;23.768;2023-03-15T01:32:44;92126.72;;;1.39;69.23
64402;BME280;50724;42.376;23.768;2023-03-15T01:35:45;92126.31;;;1.34;67.97
64402;BME280;50724;42.376;23.768;2023-03-15T01:38:46;92132.53;;;1.31;66.79
64402;BME280;50724;42.376;23.768;2023-03-15T01:41:48;92130.38;;;1.36;66.89
64402;BME280;50724;42.376;23.768;2023-03-15T01:44:54;92120.31;;;1.53;68.70
64402;BME280;50724;42.376;23.768;2023-03-15T01:47:56;92125.63;;;1.42;68.81
64402;BME280;50724;42.376;23.768;2023-03-15T01:50:56;92116.56;;;1.28;68.34
64402;BME280;50724;42.376;23.768;2023-03-15T01:54:06;92121.31;;;1.32;67.43
64402;BME280;50724;42.376;23.768;2023-03-15T01:57:37;92114.91;;;1.36;66.65
64402;BME280;50724;42.376;23.768;2023-03-15T02:00:41;92107.59;;;1.42;67.95
64402;BME280;50724;42.376;23.768;2023-03-15T02:03:43;92105.84;;;1.32;68.76
64402;BME280;50724;42.376;23.768;2023-03-15T02:06:47;92107.50;;;1.24;69.20
64402;BME280;50724;42.376;23.768;2023-03-15T02:09:56;92106.38;;;1.36;67.57
64402;BME280;50724;42.376;23.768;2023-03-15T02:12:58;92109.22;;;1.52;67.47
64402;BME280;50724;42.376;23.768;2023-03-15T02:15:59;92106.50;;;1.54;67.70
64402;BME280;50724;42.376;23.768;2023-03-15T02:18:59;92099.59;;;1.64;68.16
64402;BME280;50724;42.376;23.768;2023-03-15T02:28:42;92102.44;;;1.61;66.60
64402;BME280;50724;42.376;23.768;2023-03-15T02:31:43;92108.91;;;1.65;67.50
64402;BME280;50724;42.376;23.768;2023-03-15T02:34:43;92104.63;;;1.46;68.32
64402;BME280;50724;42.376;23.768;2023-03-15T02:37:44;92098.66;;;1.36;68.22
64402;BME280;50724;42.376;23.768;2023-03-15T02:40:45;92092.31;;;1.30;69.01
64402;BME280;50724;42.376;23.768;2023-03-15T02:43:48;92074.91;;;1.52;66.38
64402;BME280;50724;42.376;23.768;2023-03-15T02:46:55;92056.31;;;1.58;67.03
64402;BME280;50724;42.376;23.768;2023-03-15T02:49:56;92057.06;;;1.41;67.21
64402;BME280;50724;42.376;23.768;2023-03-15T02:52:56;92051.94;;;1.02;70.24
64402;BME280;50724;42.376;23.768;2023-03-15T02:55:57;92054.91;;;1.17;69.80
64402;BME280;50724;42.376;23.768;2023-03-15T02:58:58;92051.94;;;1.21;69.21
64402;BME280;50724;42.376;23.768;2023-03-15T03:01:58;92049.47;;;1.29;68.66
64402;BME280;50724;42.376;23.768;2023-03-15T03:04:59;92042.81;;;1.17;69.06
64402;BME280;50724;42.376;23.768;2023-03-15T03:07:59;92048.13;;;1.16;70.24
64402;BME280;50724;42.376;23.768;2023-03-15T03:11:02;92036.59;;;1.10;69.73
64402;BME280;50724;42.376;23.768;2023-03-15T03:14:03;92042.97;;;1.25;69.17
64402;BME280;50724;42.376;23.768;2023-03-15T03:17:03;92056.16;;;0.94;73.11
64402;BME280;50724;42.376;23.768;2023-03-15T03:20:08;92059.38;;;0.86;72.00
64402;BME280;50724;42.376;23.768;2023-03-15T03:23:09;92044.22;;;1.02;70.67
64402;BME280;50724;42.376;23.768;2023-03-15T03:26:13;92041.50;;;1.04;70.17
64402;BME280;50724;42.376;23.768;2023-03-15T03:29:16;92038.91;;;0.94;70.32
64402;BME280;50724;42.376;23.768;2023-03-15T03:32:16;92037.00;;;1.15;70.51
64402;BME280;50724;42.376;23.768;2023-03-15T03:35:17;92027.28;;;1.00;70.80
64402;BME280;50724;42.376;23.768;2023-03-15T03:38:17;92024.44;;;1.03;70.82
64402;BME280;50724;42.376;23.768;2023-03-15T03:41:18;92017.81;;;0.81;71.45
64402;BME280;50724;42.376;23.768;2023-03-15T03:44:20;92012.09;;;0.78;71.00
64402;BME280;50724;42.376;23.768;2023-03-15T03:47:30;92012.13;;;0.58;72.98
64402;BME280;50724;42.376;23.768;2023-03-15T03:50:30;92011.81;;;0.52;73.92
64402;BME280;50724;42.376;23.768;2023-03-15T03:53:39;91998.56;;;0.56;74.34
64402;BME280;50724;42.376;23.768;2023-03-15T03:56:39;92005.59;;;0.83;73.64
64402;BME280;50724;42.376;23.768;2023-03-15T03:59:40;92005.88;;;0.80;73.72
64402;BME280;50724;42.376;23.768;2023-03-15T04:02:40;91994.50;;;0.83;72.89
64402;BME280;50724;42.376;23.768;2023-03-15T04:05:43;91995.31;;;1.02;72.32
64402;BME280;50724;42.376;23.768;2023-03-15T04:08:47;92009.50;;;1.25;72.37
64402;BME280;50724;42.376;23.768;2023-03-15T04:11:47;92010.41;;;1.34;70.75
64402;BME280;50724;42.376;23.768;2023-03-15T04:14:47;92004.06;;;1.38;70.52
64402;BME280;50724;42.376;23.768;2023-03-15T04:17:49;92011.78;;;1.28;71.17
64402;BME280;50724;42.376;23.768;2023-03-15T04:20:55;92002.03;;;1.13;71.16
64402;BME280;50724;42.376;23.768;2023-03-15T04:23:55;92009.00;;;1.03;71.58
64402;BME280;50724;42.376;23.768;2023-03-15T04:26:55;92003.03;;;1.02;71.62
64402;BME280;50724;42.376;23.768;2023-03-15T04:29:56;92009.00;;;0.93;71.84
64402;BME280;50724;42.376;23.768;2023-03-15T04:32:57;91999.22;;;0.87;71.50
64402;BME280;50724;42.376;23.768;2023-03-15T04:36:02;91993.00;;;0.70;71.94
64402;BME280;50724;42.376;23.768;2023-03-15T04:39:03;92001.53;;;0.81;71.79
64402;BME280;50724;42.376;23.768;2023-03-15T04:42:05;92009.16;;;0.73;72.15
64402;BME280;50724;42.376;23.768;2023-03-15T04:45:06;92016.31;;;0.79;72.58
64402;BME280;50724;42.376;23.768;2023-03-15T04:48:06;92004.53;;;0.76;72.92
64402;BME280;50724;42.376;23.768;2023-03-15T04:51:07;91995.31;;;0.74;72.81
64402;BME280;50724;42.376;23.768;2023-03-15T04:54:15;91992.75;;;0.83;72.82
64402;BME280;50724;42.376;23.768;2023-03-15T04:57:16;91991.50;;;0.97;73.16
64402;BME280;50724;42.376;23.768;2023-03-15T05:00:16;91998.16;;;0.90;71.75
64402;BME280;50724;42.376;23.768;2023-03-15T05:03:17;92003.69;;;1.04;72.21
64402;BME280;50724;42.376;23.768;2023-03-15T05:06:17;91991.97;;;1.38;72.66
64402;BME280;50724;42.376;23.768;2023-03-15T05:09:18;91995.00;;;1.71;69.84
64402;BME280;50724;42.376;23.768;2023-03-15T05:12:18;91993.75;;;1.75;72.10
64402;BME280;50724;42.376;23.768;2023-03-15T05:15:19;91995.00;;;1.71;71.94
64402;BME280;50724;42.376;23.768;2023-03-15T05:18:19;91997.75;;;1.96;69.99
64402;BME280;50724;42.376;23.768;2023-03-15T05:21:21;92005.00;;;2.11;69.89
64402;BME280;50724;42.376;23.768;2023-03-15T05:24:21;92000.97;;;2.26;70.02
64402;BME280;50724;42.376;23.768;2023-03-15T05:27:22;92007.31;;;2.31;71.30
64402;BME280;50724;42.376;23.768;2023-03-15T05:30:22;92014.78;;;2.52;67.96
64402;BME280;50724;42.376;23.768;2023-03-15T05:33:23;92009.72;;;2.60;67.34
64402;BME280;50724;42.376;23.768;2023-03-15T05:36:23;92005.50;;;2.59;67.00
64402;BME280;50724;42.376;23.768;2023-03-15T05:39:24;91996.66;;;2.97;63.29
64402;BME280;50724;42.376;23.768;2023-03-15T05:42:24;91998.03;;;3.26;64.73
64402;BME280;50724;42.376;23.768;2023-03-15T05:45:25;91991.84;;;3.19;65.92
64402;BME280;50724;42.376;23.768;2023-03-15T05:48:25;91981.84;;;2.99;66.87
64402;BME280;50724;42.376;23.768;2023-03-15T05:51:26;91982.13;;;2.96;67.19
64402;BME280;50724;42.376;23.768;2023-03-15T05:54:27;91982.69;;;3.07;66.20
64402;BME280;50724;42.376;23.768;2023-03-15T05:57:28;91976.25;;;3.29;67.24
64402;BME280;50724;42.376;23.768;2023-03-15T06:00:28;91979.47;;;3.48;65.53
64402;BME280;50724;42.376;23.768;2023-03-15T06:03:30;91975.66;;;3.61;65.09
64402;BME280;50724;42.376;23.768;2023-03-15T06:06:31;91986.03;;;3.69;63.26
64402;BME280;50724;42.376;23.768;2023-03-15T06:09:31;91995.72;;;3.67;64.97
64402;BME280;50724;42.376;23.768;2023-03-15T06:12:32;92003.41;;;3.33;67.14
64402;BME280;50724;42.376;23.768;2023-03-15T06:15:32;92002.69;;;3.23;66.34
64402;BME280;50724;42.376;23.768;2023-03-15T06:18:33;92000.94;;;3.49;66.12
64402;BME280;50724;42.376;23.768;2023-03-15T06:21:33;92000.97;;;3.83;61.13
64402;BME280;50724;42.376;23.768;2023-03-15T06:24:33;91997.28;;;3.85;59.22
64402;BME280;50724;42.376;23.768;2023-03-15T06:27:34;92007.50;;;3.95;62.97
64402;BME280;50724;42.376;23.768;2023-03-15T06:30:35;92006.56;;;4.04;59.91
64402;BME280;50724;42.376;23.768;2023-03-15T06:33:36;92007.03;;;4.33;59.28
64402;BME280;50724;42.376;23.768;2023-03-15T06:36:37;92003.84;;;4.47;58.62
64402;BME280;50724;42.376;23.768;2023-03-15T06:39:38;91994.50;;;4.54;57.72
64402;BME280;50724;42.376;23.768;2023-03-15T06:42:39;91978.41;;;5.09;58.95
64402;BME280;50724;42.376;23.768;2023-03-15T06:45:40;91968.50;;;5.28;59.08
64402;BME280;50724;42.376;23.768;2023-03-15T06:48:41;91973.69;;;5.36;59.25
64402;BME280;50724;42.376;23.768;2023-03-15T06:51:41;91977.06;;;5.45;58.39
64402;BME280;50724;42.376;23.768;2023-03-15T06:54:44;91975.78;;;5.41;59.76
64402;BME280;50724;42.376;23.768;2023-03-15T06:57:44;91982.25;;;5.37;58.60
64402;BME280;50724;42.376;23.768;2023-03-15T07:00:45;91987.44;;;5.45;57.94
64402;BME280;50724;42.376;23.768;2023-03-15T07:03:47;91993.91;;;5.57;55.57
64402;BME280;50724;42.376;23.768;2023-03-15T07:06:48;91982.25;;;5.61;55.83
64402;BME280;50724;42.376;23.768;2023-03-15T07:09:48;91980.47;;;5.86;56.43
64402;BME280;50724;42.376;23.768;2023-03-15T07:12:48;91989.72;;;6.35;53.70
64402;BME280;50724;42.376;23.768;2023-03-15T07:15:53;91985.69;;;6.63;51.06
64402;BME280;50724;42.376;23.768;2023-03-15T07:18:53;91997.88;;;6.63;51.22
64402;BME280;50724;42.376;23.768;2023-03-15T07:21:55;92001.59;;;6.21;50.42
64402;BME280;50724;42.376;23.768;2023-03-15T07:24:56;92002.41;;;6.22;53.04
64402;BME280;50724;42.376;23.768;2023-03-15T07:27:59;91999.66;;;6.23;51.17
64402;BME280;50724;42.376;23.768;2023-03-15T07:31:02;92000.63;;;6.14;52.32
64402;BME280;50724;42.376;23.768;2023-03-15T07:34:03;91976.03;;;5.94;52.07
64402;BME280;50724;42.376;23.768;2023-03-15T07:37:03;91970.63;;;6.12;53.12
64402;BME280;50724;42.376;23.768;2023-03-15T07:40:05;91972.91;;;6.15;53.24
64402;BME280;50724;42.376;23.768;2023-03-15T07:43:15;91987.97;;;6.19;53.69
64402;BME280;50724;42.376;23.768;2023-03-15T07:46:15;91978.41;;;6.20;54.43
64402;BME280;50724;42.376;23.768;2023-03-15T07:49:16;92000.13;;;6.27;53.73
64402;BME280;50724;42.376;23.768;2023-03-15T07:52:17;91998.38;;;6.11;52.67
64402;BME280;50724;42.376;23.768;2023-03-15T07:55:17;91966.63;;;5.93;53.61
64402;BME280;50724;42.376;23.768;2023-03-15T07:58:18;91969.34;;;6.08;52.85
64402;BME280;50724;42.376;23.768;2023-03-15T08:01:19;91964.28;;;6.22;52.09
64402;BME280;50724;42.376;23.768;2023-03-15T08:04:20;91968.19;;;6.18;53.08
64402;BME280;50724;42.376;23.768;2023-03-15T08:07:21;91957.59;;;6.28;53.52
64402;BME280;50724;42.376;23.768;2023-03-15T08:10:21;91955.97;;;6.35;52.26
64402;BME280;50724;42.376;23.768;2023-03-15T08:13:22;91950.47;;;6.30;52.80
64402;BME280;50724;42.376;23.768;2023-03-15T08:16:23;91936.25;;;6.71;53.34
64402;BME280;50724;42.376;23.768;2023-03-15T08:19:24;91934.38;;;7.11;52.38
64402;BME280;50724;42.376;23.768;2023-03-15T08:22:24;91941.91;;;7.06;51.71
64402;BME280;50724;42.376;23.768;2023-03-15T08:25:25;91958.25;;;7.14;50.07
64402;BME280;50724;42.376;23.768;2023-03-15T08:28:25;91957.50;;;7.06;51.26
64402;BME280;50724;42.376;23.768;2023-03-15T08:31:26;91956.94;;;7.33;51.55
64402;BME280;50724;42.376;23.768;2023-03-15T08:34:26;91956.22;;;7.24;51.29
64402;BME280;50724;42.376;23.768;2023-03-15T08:37:26;91944.59;;;7.12;52.89
64402;BME280;50724;42.376;23.768;2023-03-15T08:40:30;91935.28;;;7.18;53.14
64402;BME280;50724;42.376;23.768;2023-03-15T08:43:30;91946.91;;;7.82;51.04
64402;BME280;50724;42.376;23.768;2023-03-15T08:46:31;91956.81;;;8.01;51.88
64402;BME280;50724;42.376;23.768;2023-03-15T08:49:32;91970.94;;;8.36;50.51
64402;BME280;50724;42.376;23.768;2023-03-15T08:52:32;91958.34;;;8.24;51.16
64402;BME280;50724;42.376;23.768;2023-03-15T08:55:33;91952.34;;;8.39;50.63
64402;BME280;50724;42.376;23.768;2023-03-15T08:58:33;91952.13;;;8.55;50.59
64402;BME280;50724;42.376;23.768;2023-03-15T09:01:35;91948.44;;;8.49;49.65
64402;BME280;50724;42.376;23.768;2023-03-15T09:04:35;91944.13;;;8.56;50.22
64402;BME280;50724;42.376;23.768;2023-03-15T09:07:38;91945.81;;;8.64;51.78
64402;BME280;50724;42.376;23.768;2023-03-15T09:10:38;91946.47;;;8.51;50.48
64402;BME280;50724;42.376;23.768;2023-03-15T09:13:39;91956.19;;;8.28;51.32
64402;BME280;50724;42.376;23.768;2023-03-15T09:16:39;91956.00;;;8.15;52.38
64402;BME280;50724;42.376;23.768;2023-03-15T09:19:40;91947.44;;;8.21;51.95
64402;BME280;50724;42.376;23.768;2023-03-15T09:22:41;91946.13;;;8.10;52.11
64402;BME280;50724;42.376;23.768;2023-03-15T09:25:42;91948.72;;;8.25;52.31
64402;BME280;50724;42.376;23.768;2023-03-15T09:28:42;91944.06;;;8.35;52.57
64402;BME280;50724;42.376;23.768;2023-03-15T09:31:43;91931.31;;;8.76;51.58
64402;BME280;50724;42.376;23.768;2023-03-15T09:34:43;91932.06;;;8.91;50.61
64402;BME280;50724;42.376;23.768;2023-03-15T09:37:44;91932.91;;;9.13;49.30
64402;BME280;50724;42.376;23.768;2023-03-15T09:40:45;91938.81;;;9.42;48.59
64402;BME280;50724;42.376;23.768;2023-03-15T09:47:27;91941.78;;;9.39;49.50
64402;BME280;50724;42.376;23.768;2023-03-15T09:50:35;91944.56;;;9.38;49.56
64402;BME280;50724;42.376;23.768;2023-03-15T09:56:58;91937.69;;;9.51;49.05
64402;BME280;50724;42.376;23.768;2023-03-15T10:00:01;91938.28;;;10.09;47.26
64402;BME280;50724;42.376;23.768;2023-03-15T10:06:43;91939.84;;;10.72;45.57
64402;BME280;50724;42.376;23.768;2023-03-15T10:09:46;91931.63;;;10.34;45.64
64402;BME280;50724;42.376;23.768;2023-03-15T10:12:54;91917.53;;;10.22;46.79
64402;BME280;50724;42.376;23.768;2023-03-15T10:16:13;91923.53;;;10.22;47.14
64402;BME280;50724;42.376;23.768;2023-03-15T10:22:46;91909.81;;;11.09;46.29
64402;BME280;50724;42.376;23.768;2023-03-15T10:25:50;91909.94;;;10.33;46.84
64402;BME280;50724;42.376;23.768;2023-03-15T10:28:52;91918.84;;;10.11;48.39
64402;BME280;50724;42.376;23.768;2023-03-15T10:31:53;91917.09;;;10.18;47.50
64402;BME280;50724;42.376;23.768;2023-03-15T10:34:55;91900.13;;;9.80;47.80
64402;BME280;50724;42.376;23.768;2023-03-15T10:37:56;91893.84;;;9.68;48.73
64402;BME280;50724;42.376;23.768;2023-03-15T10:41:06;91888.34;;;9.84;48.55
64402;BME280;50724;42.376;23.768;2023-03-15T10:44:18;91887.28;;;9.79;47.90
64402;BME280;50724;42.376;23.768;2023-03-15T10:47:20;91901.16;;;9.79;48.92
64402;BME280;50724;42.376;23.768;2023-03-15T10:50:28;91906.66;;;9.63;50.25
64402;BME280;50724;42.376;23.768;2023-03-15T10:53:29;91901.25;;;9.99;48.23
64402;BME280;50724;42.376;23.768;2023-03-15T10:56:31;91887.63;;;9.41;50.21
64402;BME280;50724;42.376;23.768;2023-03-15T10:59:35;91891.03;;;9.69;48.99
64402;BME280;50724;42.376;23.768;2023-03-15T11:02:35;91878.94;;;9.62;49.04
64402;BME280;50724;42.376;23.768;2023-03-15T11:05:42;91878.44;;;9.52;48.71
64402;BME280;50724;42.376;23.768;2023-03-15T11:08:43;91891.28;;;9.47;48.50
64402;BME280;50724;42.376;23.768;2023-03-15T11:11:50;91884.34;;;9.33;49.81
64402;BME280;50724;42.376;23.768;2023-03-15T11:14:56;91892.59;;;8.73;50.85
64402;BME280;50724;42.376;23.768;2023-03-15T11:17:57;91887.84;;;9.19;50.00
64402;BME280;50724;42.376;23.768;2023-03-15T11:20:58;91889.25;;;9.21;50.09
64402;BME280;50724;42.376;23.768;2023-03-15T11:24:01;91877.97;;;9.14;50.40
64402;BME280;50724;42.376;23.768;2023-03-15T11:27:10;91892.59;;;9.15;50.28
64402;BME280;50724;42.376;23.768;2023-03-15T11:30:15;91891.22;;;9.19;49.55
64402;BME280;50724;42.376;23.768;2023-03-15T11:36:29;91877.25;;;8.84;49.91
64402;BME280;50724;42.376;23.768;2023-03-15T11:39:38;91874.63;;;8.63;50.29
64402;BME280;50724;42.376;23.768;2023-03-15T11:42:54;91878.91;;;8.50;51.32
64402;BME280;50724;42.376;23.768;2023-03-15T11:46:02;91868.81;;;8.61;50.93
64402;BME280;50724;42.376;23.768;2023-03-15T11:49:16;91866.72;;;8.92;51.68
64402;BME280;50724;42.376;23.768;2023-03-15T11:52:21;91860.22;;;9.31;50.45
64402;BME280;50724;42.376;23.768;2023-03-15T11:55:26;91849.25;;;9.35;49.68
64402;BME280;50724;42.376;23.768;2023-03-15T11:58:35;91861.47;;;9.35;50.15
64402;BME280;50724;42.376;23.768;2023-03-15T12:01:56;91872.94;;;9.40;49.63
64402;BME280;50724;42.376;23.768;2023-03-15T12:04:57;91861.22;;;9.30;49.64
64402;BME280;50724;42.376;23.768;2023-03-15T12:08:38;91850.53;;;9.80;49.38
64402;BME280;50724;42.376;23.768;2023-03-15T12:11:36;91839.34;;;10.27;47.44
64402;BME280;50724;42.376;23.768;2023-03-15T12:14:37;91839.19;;;10.42;47.41
64402;BME280;50724;42.376;23.768;2023-03-15T12:18:42;91839.44;;;10.53;46.94
64402;BME280;50724;42.376;23.768;2023-03-15T12:21:18;91832.47;;;10.86;46.41
64402;BME280;50724;42.376;23.768;2023-03-15T12:24:24;91843.19;;;11.11;46.84
64402;BME280;50724;42.376;23.768;2023-03-15T12:27:26;91837.09;;;10.78;46.50
64402;BME280;50724;42.376;23.768;2023-03-15T12:30:40;91837.31;;;10.83;47.55
64402;BME280;50724;42.376;23.768;2023-03-15T12:33:55;91834.66;;;10.70;47.13
64402;BME280;50724;42.376;23.768;2023-03-15T12:37:05;91848.63;;;10.36;48.13
64402;BME280;50724;42.376;23.768;2023-03-15T12:43:48;91836.19;;;10.38;48.89
64402;BME280;50724;42.376;23.768;2023-03-15T12:49:51;91819.94;;;10.56;48.91
64402;BME280;50724;42.376;23.768;2023-03-15T12:52:52;91819.38;;;10.73;47.43
64402;BME280;50724;42.376;23.768;2023-03-15T12:59:26;91807.56;;;10.97;47.08
64402;BME280;50724;42.376;23.768;2023-03-15T13:02:34;91796.66;;;10.87;46.52
64402;BME280;50724;42.376;23.768;2023-03-15T13:12:15;91802.06;;;10.59;48.13
64402;BME280;50724;42.376;23.768;2023-03-15T13:15:24;91813.13;;;10.68;47.25
64402;BME280;50724;42.376;23.768;2023-03-15T13:18:28;91811.28;;;10.55;47.13
64402;BME280;50724;42.376;23.768;2023-03-15T13:21:35;91812.22;;;10.28;49.06
64402;BME280;50724;42.376;23.768;2023-03-15T13:28:32;91802.06;;;10.59;47.94
64402;BME280;50724;42.376;23.768;2023-03-15T13:31:37;91799.97;;;10.35;49.00
64402;BME280;50724;42.376;23.768;2023-03-15T13:34:37;91806.47;;;10.65;47.46
64402;BME280;50724;42.376;23.768;2023-03-15T13:37:39;91814.25;;;10.46;47.66
64402;BME280;50724;42.376;23.768;2023-03-15T13:40:45;91803.56;;;10.27;48.88
64402;BME280;50724;42.376;23.768;2023-03-15T13:43:46;91799.81;;;10.43;47.67
64402;BME280;50724;42.376;23.768;2023-03-15T13:46:49;91802.44;;;10.43;48.13
64402;BME280;50724;42.376;23.768;2023-03-15T13:49:52;91803.31;;;10.16;49.94
64402;BME280;50724;42.376;23.768;2023-03-15T13:52:54;91799.66;;;9.69;50.20
64402;BME280;50724;42.376;23.768;2023-03-15T13:55:55;91806.91;;;9.74;50.07
64402;BME280;50724;42.376;23.768;2023-03-15T13:58:56;91809.84;;;9.99;49.08
64402;BME280;50724;42.376;23.768;2023-03-15T14:01:58;91810.66;;;10.47;47.67
64402;BME280;50724;42.376;23.768;2023-03-15T14:05:02;91805.72;;;10.78;47.43
64402;BME280;50724;42.376;23.768;2023-03-15T14:08:06;91804.13;;;10.90;46.80
64402;BME280;50724;42.376;23.768;2023-03-15T14:11:31;91803.31;;;11.09;45.99
64402;BME280;50724;42.376;23.768;2023-03-15T14:14:48;91801.72;;;11.41;45.64
64402;BME280;50724;42.376;23.768;2023-03-15T14:18:26;91788.63;;;11.01;45.09
64402;BME280;50724;42.376;23.768;2023-03-15T14:21:30;91790.22;;;11.09;45.27
64402;BME280;50724;42.376;23.768;2023-03-15T14:24:36;91799.56;;;10.31;46.46
64402;BME280;50724;42.376;23.768;2023-03-15T14:27:37;91788.03;;;10.13;47.74
64402;BME280;50724;42.376;23.768;2023-03-15T14:30:38;91785.50;;;9.92;47.79
64402;BME280;50724;42.376;23.768;2023-03-15T14:33:40;91784.22;;;9.75;49.58
64402;BME280;50724;42.376;23.768;2023-03-15T14:36:43;91771.44;;;9.93;48.58
64402;BME280;50724;42.376;23.768;2023-03-15T14:39:43;91766.81;;;9.88;48.01
64402;BME280;50724;42.376;23.768;2023-03-15T14:42:44;91774.13;;;9.65;49.58
64402;BME280;50724;42.376;23.768;2023-03-15T14:45:46;91781.59;;;9.68;49.17
64402;BME280;50724;42.376;23.768;2023-03-15T14:48:49;91788.00;;;9.65;49.41
64402;BME280;50724;42.376;23.768;2023-03-15T14:52:02;91787.50;;;9.49;49.62
64402;BME280;50724;42.376;23.768;2023-03-15T14:55:03;91785.03;;;9.41;51.14
64402;BME280;50724;42.376;23.768;2023-03-15T14:58:10;91788.81;;;9.38;51.12
64402;BME280;50724;42.376;23.768;2023-03-15T15:01:15;91795.94;;;9.51;50.80
64402;BME280;50724;42.376;23.768;2023-03-15T15:04:17;91784.66;;;9.44;50.54
64402;BME280;50724;42.376;23.768;2023-03-15T15:07:27;91791.28;;;9.40;51.13
64402;BME280;50724;42.376;23.768;2023-03-15T15:10:27;91798.84;;;9.35;52.14
64402;BME280;50724;42.376;23.768;2023-03-15T15:13:29;91798.50;;;9.17;51.86
64402;BME280;50724;42.376;23.768;2023-03-15T15:16:30;91797.00;;;9.01;52.74
64402;BME280;50724;42.376;23.768;2023-03-15T15:19:31;91808.31;;;8.87;53.68
64402;BME280;50724;42.376;23.768;2023-03-15T15:22:31;91794.91;;;8.90;52.31
64402;BME280;50724;42.376;23.768;2023-03-15T15:25:32;91807.31;;;8.88;52.14
64402;BME280;50724;42.376;23.768;2023-03-15T15:28:34;91811.72;;;8.87;52.55
64402;BME280;50724;42.376;23.768;2023-03-15T15:31:35;91803.94;;;8.94;52.48
64402;BME280;50724;42.376;23.768;2023-03-15T15:34:35;91804.47;;;8.83;53.86
64402;BME280;50724;42.376;23.768;2023-03-15T15:37:36;91798.09;;;8.64;53.88
64402;BME280;50724;42.376;23.768;2023-03-15T15:40:37;91804.72;;;8.46;54.19
64402;BME280;50724;42.376;23.768;2023-03-15T15:43:38;91811.59;;;8.32;52.84
64402;BME280;50724;42.376;23.768;2023-03-15T15:46:39;91804.09;;;8.44;52.41
64402;BME280;50724;42.376;23.768;2023-03-15T15:49:39;91803.53;;;8.48;52.29
64402;BME280;50724;42.376;23.768;2023-03-15T15:52:42;91812.31;;;8.26;52.86
64402;BME280;50724;42.376;23.768;2023-03-15T15:55:43;91809.97;;;8.31;52.33
64402;BME280;50724;42.376;23.768;2023-03-15T15:58:45;91816.16;;;8.30;52.91
64402;BME280;50724;42.376;23.768;2023-03-15T16:01:47;91818.34;;;8.12;53.60
64402;BME280;50724;42.376;23.768;2023-03-15T16:04:50;91820.69;;;8.07;53.71
64402;BME280;50724;42.376;23.768;2023-03-15T16:07:52;91814.31;;;8.09;53.55
64402;BME280;50724;42.376;23.768;2023-03-15T16:10:52;91825.63;;;8.02;54.13
64402;BME280;50724;42.376;23.768;2023-03-15T16:13:53;91827.25;;;8.03;54.66
64402;BME280;50724;42.376;23.768;2023-03-15T16:16:53;91832.38;;;7.96;55.04
64402;BME280;50724;42.376;23.768;2023-03-15T16:19:54;91823.06;;;7.87;55.31
64402;BME280;50724;42.376;23.768;2023-03-15T16:22:56;91836.63;;;7.83;55.34
64402;BME280;50724;42.376;23.768;2023-03-15T16:26:09;91843.78;;;7.81;55.93
64402;BME280;50724;42.376;23.768;2023-03-15T16:29:20;91852.84;;;7.85;55.99
64402;BME280;50724;42.376;23.768;2023-03-15T16:32:22;91850.44;;;7.69;56.66
64402;BME280;50724;42.376;23.768;2023-03-15T16:35:30;91854.66;;;7.84;56.01
64402;BME280;50724;42.376;23.768;2023-03-15T16:38:31;91859.84;;;7.84;56.32
64402;BME280;50724;42.376;23.768;2023-03-15T16:41:31;91856.97;;;7.64;57.15
64402;BME280;50724;42.376;23.768;2023-03-15T16:44:32;91861.00;;;7.67;57.28
64402;BME280;50724;42.376;23.768;2023-03-15T16:47:32;91854.81;;;7.53;57.96
64402;BME280;50724;42.376;23.768;2023-03-15T16:50:33;91854.53;;;7.48;58.43
64402;BME280;50724;42.376;23.768;2023-03-15T16:53:34;91851.91;;;7.34;59.18